Time;durP1;ratioP1;P1;durP2;ratioP2;P2;SDS_P1;SDS_P2;PMS_P1;PMS_P2;Temp;Humidity;BMP_temperature;BMP_pressure;BME280_temperature;BME280_humidity;BME280_pressure;Samples;Min_cycle;Max_cycle;Signal;HPM_P1;HPM_P2
2022/02/28 00:01:07;;;;;;;1.27;0.80;;;21.80;43.50;;;;;;4995937;28;20046;-68
2022/02/28 00:03:33;;;;;;;1.13;0.70;;;21.80;43.50;;;;;;4998239;28;20026;-70
2022/02/28 00:05:59;;;;;;;1.38;1.00;;;21.70;43.40;;;;;;4999211;28;20036;-70
2022/02/28 00:08:25;;;;;;;1.92;0.90;;;21.70;43.50;;;;;;4997231;28;20467;-70
2022/02/28 00:10:51;;;;;;;1.65;0.90;;;21.70;43.50;;;;;;4996409;28;20036;-68
2022/02/28 00:13:16;;;;;;;1.67;0.82;;;21.70;43.50;;;;;;4998366;28;20548;-68
2022/02/28 00:15:42;;;;;;;1.25;0.90;;;21.70;43.50;;;;;;4998892;28;20033;-68
2022/02/28 00:18:08;;;;;;;0.85;0.77;;;21.70;43.50;;;;;;4997833;28;20849;-70
2022/02/28 00:20:33;;;;;;;1.52;0.98;;;21.70;43.50;;;;;;4997565;28;20498;-70
2022/02/28 00:22:59;;;;;;;1.63;1.00;;;21.70;43.50;;;;;;4995104;28;20069;-70
2022/02/28 00:25:25;;;;;;;1.40;0.90;;;21.70;43.50;;;;;;4996041;28;20044;-69
2022/02/28 00:27:51;;;;;;;1.67;0.90;;;21.60;43.50;;;;;;4997974;28;20030;-68
2022/02/28 00:30:16;;;;;;;1.60;0.90;;;21.60;43.50;;;;;;4997178;28;20073;-66
2022/02/28 00:32:42;;;;;;;1.60;0.90;;;21.60;43.50;;;;;;4997110;28;20117;-68
2022/02/28 00:35:08;;;;;;;1.20;0.82;;;21.60;43.50;;;;;;5010950;28;20030;-70
2022/02/28 00:37:35;;;;;;;1.55;1.00;;;21.60;43.50;;;;;;4998449;28;20730;-66
2022/02/28 00:40:02;;;;;;;1.15;0.80;;;21.60;43.60;;;;;;5008325;28;20490;-70
2022/02/28 00:42:28;;;;;;;1.17;0.80;;;21.60;43.60;;;;;;4997347;28;20037;-70
2022/02/28 00:44:53;;;;;;;1.30;0.80;;;21.50;43.50;;;;;;4996242;28;20026;-69
2022/02/28 00:47:19;;;;;;;1.13;0.82;;;21.50;43.50;;;;;;4997641;28;20490;-68
2022/02/28 00:49:45;;;;;;;0.93;0.80;;;21.50;43.50;;;;;;4997420;28;20034;-70
2022/02/28 00:52:11;;;;;;;1.98;1.00;;;21.50;43.60;;;;;;4997399;28;20030;-66
2022/02/28 00:54:36;;;;;;;1.10;0.90;;;21.50;43.60;;;;;;4995127;28;20038;-69
2022/02/28 00:57:02;;;;;;;1.35;1.05;;;21.50;43.60;;;;;;4998102;28;20112;-70
2022/02/28 00:59:28;;;;;;;1.40;0.93;;;21.50;43.60;;;;;;4995570;28;20029;-68
2022/02/28 01:01:54;;;;;;;1.40;0.98;;;21.40;43.60;;;;;;4997034;28;20113;-70
2022/02/28 01:04:20;;;;;;;1.88;0.95;;;21.40;43.60;;;;;;4996675;28;20030;-69
2022/02/28 01:06:45;;;;;;;1.13;0.77;;;21.40;43.60;;;;;;4996418;28;20029;-68
2022/02/28 01:09:11;;;;;;;1.20;0.75;;;21.40;43.60;;;;;;4991244;28;20817;-70
2022/02/28 01:11:37;;;;;;;1.30;0.90;;;21.40;43.60;;;;;;4994423;28;20040;-70
2022/02/28 01:14:04;;;;;;;1.33;0.90;;;21.40;43.60;;;;;;4997791;28;20022;-70
2022/02/28 01:16:30;;;;;;;0.80;0.70;;;21.40;43.60;;;;;;4997786;28;20026;-70
2022/02/28 01:18:56;;;;;;;1.88;0.93;;;21.40;43.60;;;;;;5011955;28;20491;-68
2022/02/28 01:21:21;;;;;;;1.83;0.93;;;21.30;43.60;;;;;;4998203;28;20018;-69
2022/02/28 01:23:47;;;;;;;1.30;0.82;;;21.30;43.60;;;;;;4994756;28;20557;-70
2022/02/28 01:26:13;;;;;;;1.77;1.08;;;21.30;43.60;;;;;;4996139;28;20031;-70
2022/02/28 01:28:38;;;;;;;1.02;0.73;;;21.30;43.60;;;;;;4997078;28;20034;-67
2022/02/28 01:31:04;;;;;;;1.55;0.85;;;21.30;43.60;;;;;;4996185;28;20056;-68
2022/02/28 01:33:32;;;;;;;1.75;1.00;;;21.30;43.60;;;;;;4996414;28;20030;-70
2022/02/28 01:35:58;;;;;;;1.70;0.90;;;21.30;43.60;;;;;;4996210;28;20033;-70
2022/02/28 01:38:24;;;;;;;1.80;1.00;;;21.30;43.70;;;;;;4995776;28;20470;-68
2022/02/28 01:40:49;;;;;;;1.45;1.00;;;21.20;43.60;;;;;;5009858;28;20225;-69
2022/02/28 01:43:15;;;;;;;1.33;0.80;;;21.20;43.60;;;;;;4997265;28;20022;-67
2022/02/28 01:45:41;;;;;;;1.15;0.90;;;21.20;43.60;;;;;;4997572;28;20030;-70
2022/02/28 01:48:06;;;;;;;1.08;0.80;;;21.20;43.60;;;;;;4996740;28;20089;-70
2022/02/28 01:50:32;;;;;;;0.80;0.70;;;21.20;43.70;;;;;;4997217;28;20454;-69
2022/02/28 01:52:58;;;;;;;1.20;0.85;;;21.20;43.60;;;;;;4995866;28;20037;-70
2022/02/28 01:55:24;;;;;;;1.27;0.80;;;21.20;43.70;;;;;;4995656;28;20041;-70
2022/02/28 01:57:51;;;;;;;1.92;1.00;;;21.20;43.70;;;;;;4997340;28;20042;-69
2022/02/28 02:00:21;;;;;;;1.42;0.90;;;21.20;43.70;;;;;;5001037;28;20045;-68
2022/02/28 02:02:46;;;;;;;;;;;21.10;43.70;;;;;;4997954;28;20034;-68
2022/02/28 02:05:12;;;;;;;1.70;1.08;;;21.10;43.60;;;;;;4996332;28;19910;-67
2022/02/28 02:07:38;;;;;;;1.90;1.15;;;21.10;43.60;;;;;;4995201;28;20078;-68
2022/02/28 02:10:09;;;;;;;2.05;1.10;;;21.10;43.60;;;;;;4995227;28;20643;-70
2022/02/28 02:12:36;;;;;;;2.50;1.00;;;21.10;43.70;;;;;;5012327;28;20033;-69
2022/02/28 02:15:04;;;;;;;1.52;1.00;;;21.10;43.70;;;;;;4997647;28;20573;-70
2022/02/28 02:17:30;;;;;;;1.45;0.90;;;21.10;43.70;;;;;;4994653;28;20032;-67
2022/02/28 02:19:56;;;;;;;1.38;0.95;;;21.10;43.70;;;;;;4996321;28;20201;-67
2022/02/28 02:22:22;;;;;;;1.60;0.90;;;21.10;43.70;;;;;;4996574;28;20026;-69
2022/02/28 02:24:49;;;;;;;1.58;1.00;;;21.10;43.80;;;;;;4993379;28;20329;-70
2022/02/28 02:27:14;;;;;;;1.10;0.90;;;21.10;43.70;;;;;;4996539;28;20029;-70
2022/02/28 02:29:40;;;;;;;1.80;1.10;;;21.10;43.70;;;;;;4996162;28;20084;-69
2022/02/28 02:32:07;;;;;;;1.40;1.02;;;21.00;43.70;;;;;;4996001;28;20046;-68
2022/02/28 02:34:33;;;;;;;2.67;0.90;;;21.00;43.70;;;;;;5011389;28;20042;-67
2022/02/28 02:36:58;;;;;;;1.90;1.17;;;21.00;43.80;;;;;;4996404;28;20040;-69
2022/02/28 02:39:24;;;;;;;1.40;0.98;;;21.10;43.80;;;;;;5007846;28;20034;-68
2022/02/28 02:41:49;;;;;;;1.10;0.90;;;21.00;43.70;;;;;;4995418;28;20308;-70
2022/02/28 02:44:15;;;;;;;1.42;1.05;;;21.00;43.80;;;;;;5010440;28;20469;-68
2022/02/28 02:46:48;;;;;;;1.58;0.80;;;21.00;43.80;;;;;;4996227;28;20038;-67
2022/02/28 02:49:14;;;;;;;1.45;0.93;;;21.00;43.80;;;;;;4995745;28;20034;-68
2022/02/28 02:51:41;;;;;;;1.13;0.90;;;21.00;43.80;;;;;;4996908;28;20037;-68
2022/02/28 02:54:07;;;;;;;1.33;0.90;;;21.00;43.90;;;;;;4993926;28;20374;-70
2022/02/28 02:56:32;;;;;;;1.10;0.90;;;21.00;43.80;;;;;;5009746;28;20038;-69
2022/02/28 02:58:58;;;;;;;1.15;0.95;;;21.00;43.80;;;;;;4994571;28;20118;-67
2022/02/28 03:01:24;;;;;;;1.45;0.90;;;20.90;43.80;;;;;;5011164;28;20386;-67
2022/02/28 03:03:49;;;;;;;1.73;1.10;;;20.90;43.80;;;;;;4996961;28;20408;-70
2022/02/28 03:06:15;;;;;;;1.35;0.93;;;21.00;43.90;;;;;;4996247;28;20044;-68
2022/02/28 03:08:41;;;;;;;1.73;1.00;;;20.90;43.80;;;;;;4993069;28;20025;-67
2022/02/28 03:11:06;;;;;;;1.48;1.00;;;21.00;43.90;;;;;;5009307;28;20466;-70
2022/02/28 03:13:32;;;;;;;1.73;1.00;;;20.90;43.90;;;;;;4997109;28;20049;-68
2022/02/28 03:15:57;;;;;;;1.70;1.20;;;20.90;43.80;;;;;;4997215;28;20034;-68
2022/02/28 03:18:23;;;;;;;1.30;1.00;;;20.90;43.90;;;;;;4995789;28;20033;-67
2022/02/28 03:20:49;;;;;;;1.55;1.10;;;20.90;43.90;;;;;;4996713;28;20046;-67
2022/02/28 03:23:15;;;;;;;1.52;0.90;;;20.90;43.80;;;;;;4995525;28;20089;-69
2022/02/28 03:25:41;;;;;;;1.55;0.90;;;20.90;43.90;;;;;;5008410;28;20026;-69
2022/02/28 03:28:06;;;;;;;1.90;1.02;;;20.90;43.90;;;;;;4996606;28;20033;-67
2022/02/28 03:30:32;;;;;;;1.33;1.00;;;20.90;43.80;;;;;;4995323;28;20042;-68
2022/02/28 03:32:58;;;;;;;1.20;0.90;;;20.90;43.90;;;;;;4995636;28;20113;-69
2022/02/28 03:35:23;;;;;;;1.20;0.90;;;20.90;43.90;;;;;;4998754;28;20025;-68
2022/02/28 03:37:49;;;;;;;1.15;0.90;;;20.90;43.90;;;;;;4999277;28;20034;-67
2022/02/28 03:40:15;;;;;;;2.22;1.40;;;20.90;43.90;;;;;;4997952;28;20040;-67
2022/02/28 03:42:40;;;;;;;2.35;0.93;;;20.80;43.80;;;;;;4998246;28;20052;-70
2022/02/28 03:45:07;;;;;;;1.63;1.00;;;20.80;43.90;;;;;;5014830;28;20117;-67
2022/02/28 03:47:33;;;;;;;1.70;0.98;;;20.80;43.90;;;;;;4998123;28;20034;-70
2022/02/28 03:49:59;;;;;;;1.75;1.20;;;20.80;43.90;;;;;;4998456;28;20038;-67
2022/02/28 03:52:25;;;;;;;1.63;1.00;;;20.80;43.90;;;;;;4999295;28;20033;-68
2022/02/28 03:54:51;;;;;;;1.50;1.05;;;20.80;43.90;;;;;;5012546;28;20034;-68
2022/02/28 03:57:16;;;;;;;1.10;0.82;;;20.80;43.90;;;;;;4998667;28;20033;-69
2022/02/28 03:59:42;;;;;;;1.27;1.00;;;20.80;43.90;;;;;;5012635;28;20328;-67
2022/02/28 04:02:08;;;;;;;1.33;0.90;;;20.80;43.90;;;;;;4999498;28;20038;-69
2022/02/28 04:04:33;;;;;;;1.70;1.10;;;20.80;44.00;;;;;;4998573;28;20072;-70
2022/02/28 04:06:59;;;;;;;1.30;0.90;;;20.80;44.00;;;;;;4999853;28;20030;-70
2022/02/28 04:09:25;;;;;;;1.38;0.90;;;20.80;44.00;;;;;;4996442;28;20072;-68
2022/02/28 04:11:50;;;;;;;1.60;0.95;;;20.80;44.00;;;;;;4999197;28;20065;-68
2022/02/28 04:14:16;;;;;;;1.38;0.93;;;20.80;44.00;;;;;;4999112;28;20073;-68
2022/02/28 04:16:42;;;;;;;1.73;1.00;;;20.70;43.90;;;;;;5000334;28;20021;-67
2022/02/28 04:19:07;;;;;;;1.40;0.95;;;20.80;44.00;;;;;;4997514;28;20040;-68
2022/02/28 04:21:33;;;;;;;1.45;0.90;;;20.70;43.90;;;;;;4998847;28;20030;-70
2022/02/28 04:23:59;;;;;;;1.55;1.00;;;20.80;44.00;;;;;;4996007;28;20030;-67
2022/02/28 04:26:25;;;;;;;1.40;0.90;;;20.70;43.90;;;;;;4998164;28;20613;-67
2022/02/28 04:28:50;;;;;;;1.60;1.10;;;20.70;43.90;;;;;;4998218;28;20053;-67
2022/02/28 04:31:16;;;;;;;1.88;1.13;;;20.70;44.00;;;;;;4999595;28;20046;-66
2022/02/28 04:33:42;;;;;;;1.70;1.02;;;20.70;44.00;;;;;;4997184;28;20538;-68
2022/02/28 04:36:07;;;;;;;1.45;0.90;;;20.70;44.00;;;;;;4999068;28;20021;-70
2022/02/28 04:38:33;;;;;;;1.35;0.93;;;20.70;44.00;;;;;;5011857;28;20046;-67
2022/02/28 04:40:58;;;;;;;1.55;0.90;;;20.70;44.00;;;;;;4995271;28;20026;-68
2022/02/28 04:43:24;;;;;;;1.38;0.80;;;20.70;44.00;;;;;;4997771;28;20032;-69
2022/02/28 04:45:50;;;;;;;1.17;0.90;;;20.70;44.00;;;;;;4999810;28;20093;-68
2022/02/28 04:48:16;;;;;;;1.58;0.95;;;20.70;44.00;;;;;;4998110;28;20118;-66
2022/02/28 04:50:41;;;;;;;1.48;1.00;;;20.70;44.00;;;;;;4996717;28;20104;-70
2022/02/28 04:53:07;;;;;;;1.35;0.85;;;20.70;44.10;;;;;;4995600;28;20485;-70
2022/02/28 04:55:34;;;;;;;1.23;0.90;;;20.70;44.00;;;;;;4996042;28;20057;-68
2022/02/28 04:58:00;;;;;;;1.75;0.95;;;20.70;44.10;;;;;;4997302;28;20578;-69
2022/02/28 05:00:26;;;;;;;1.50;0.82;;;20.70;44.10;;;;;;4996407;28;20036;-67
2022/02/28 05:02:52;;;;;;;1.38;0.90;;;20.60;44.00;;;;;;5013017;28;20026;-68
2022/02/28 05:05:17;;;;;;;1.17;0.80;;;20.60;44.10;;;;;;4999043;28;20121;-69
2022/02/28 05:07:44;;;;;;;1.33;0.82;;;20.60;44.00;;;;;;4997139;28;20030;-68
2022/02/28 05:10:10;;;;;;;1.30;0.98;;;20.60;44.00;;;;;;4995086;28;20045;-69
2022/02/28 05:12:36;;;;;;;1.08;0.82;;;20.60;44.10;;;;;;4997221;28;20129;-69
2022/02/28 05:15:02;;;;;;;1.38;0.95;;;20.60;44.10;;;;;;4997203;28;20080;-69
2022/02/28 05:17:27;;;;;;;1.65;1.20;;;20.60;44.10;;;;;;4997949;28;20032;-68
2022/02/28 05:19:53;;;;;;;2.00;1.17;;;20.60;44.10;;;;;;4996941;28;20104;-67
2022/02/28 05:22:19;;;;;;;1.38;0.85;;;20.60;44.10;;;;;;4997647;28;20080;-69
2022/02/28 05:24:44;;;;;;;1.50;1.02;;;20.60;44.60;;;;;;4995180;28;20034;-67
2022/02/28 05:27:10;;;;;;;1.90;1.05;;;20.60;44.10;;;;;;4996300;28;20024;-66
2022/02/28 05:29:39;;;;;;;1.25;0.85;;;20.60;44.10;;;;;;5010431;28;20038;-69
2022/02/28 05:32:06;;;;;;;1.05;0.80;;;20.60;44.10;;;;;;4997452;28;20161;-70
2022/02/28 05:34:31;;;;;;;1.10;0.80;;;20.60;44.20;;;;;;4996704;28;20034;-70
2022/02/28 05:36:57;;;;;;;1.25;0.82;;;20.60;44.10;;;;;;4998278;28;20030;-69
2022/02/28 05:39:22;;;;;;;1.20;0.90;;;20.60;44.10;;;;;;5007514;28;20065;-69
2022/02/28 05:41:48;;;;;;;1.35;1.00;;;20.60;44.20;;;;;;4995453;28;20040;-69
2022/02/28 05:44:14;;;;;;;1.35;0.95;;;20.60;44.20;;;;;;4997775;28;20471;-67
2022/02/28 05:46:39;;;;;;;1.45;0.80;;;20.50;44.10;;;;;;4997641;28;20054;-68
2022/02/28 05:49:05;;;;;;;1.15;0.90;;;20.60;44.10;;;;;;4999977;28;20025;-68
2022/02/28 05:51:31;;;;;;;1.10;0.82;;;20.50;44.20;;;;;;4995403;28;20049;-69
2022/02/28 05:53:57;;;;;;;1.20;0.85;;;20.50;44.20;;;;;;4995425;28;20378;-67
2022/02/28 05:56:23;;;;;;;1.50;0.90;;;20.50;44.20;;;;;;4995597;28;20030;-68
2022/02/28 05:58:49;;;;;;;1.30;0.93;;;20.50;44.20;;;;;;5010096;28;20045;-67
2022/02/28 06:01:15;;;;;;;1.02;0.80;;;20.50;44.20;;;;;;4994262;28;20053;-67
2022/02/28 06:03:40;;;;;;;1.48;1.05;;;20.60;44.20;;;;;;4997610;28;20113;-70
2022/02/28 06:06:06;;;;;;;1.05;0.80;;;20.50;44.20;;;;;;4997829;28;20401;-69
2022/02/28 06:08:32;;;;;;;1.25;0.80;;;20.50;44.20;;;;;;4992228;28;20467;-67
2022/02/28 06:10:57;;;;;;;1.58;1.00;;;20.50;44.30;;;;;;4992489;28;20044;-66
2022/02/28 06:13:23;;;;;;;1.17;0.80;;;20.50;44.20;;;;;;4994814;28;20327;-70
2022/02/28 06:15:49;;;;;;;1.75;0.75;;;20.50;44.20;;;;;;4997543;28;20018;-67
2022/02/28 06:18:14;;;;;;;0.90;0.70;;;20.50;44.20;;;;;;4995361;28;20035;-68
2022/02/28 06:20:41;;;;;;;1.25;0.80;;;20.50;44.20;;;;;;4994540;28;20089;-67
2022/02/28 06:23:10;;;;;;;1.08;0.80;;;20.50;44.20;;;;;;4994246;28;20132;-69
2022/02/28 06:25:36;;;;;;;1.03;0.80;;;20.50;44.20;;;;;;4996018;28;20104;-66
2022/02/28 06:28:02;;;;;;;1.20;0.80;;;20.50;44.30;;;;;;4997615;28;20549;-67
2022/02/28 06:30:28;;;;;;;1.13;0.90;;;20.40;44.20;;;;;;4995378;28;20073;-67
2022/02/28 06:32:53;;;;;;;0.98;0.85;;;20.40;44.30;;;;;;4996294;28;20061;-70
2022/02/28 06:35:19;;;;;;;1.17;0.90;;;20.50;44.30;;;;;;5010886;28;20042;-69
2022/02/28 06:37:45;;;;;;;1.33;0.95;;;20.50;44.30;;;;;;5010317;28;20084;-69
2022/02/28 06:40:11;;;;;;;1.25;0.82;;;20.40;44.20;;;;;;4992308;28;20367;-70
2022/02/28 06:42:36;;;;;;;1.40;0.90;;;20.50;44.30;;;;;;4995059;28;20885;-69
2022/02/28 06:45:04;;;;;;;1.27;0.90;;;20.40;44.20;;;;;;4998303;28;20160;-70
2022/02/28 06:47:29;;;;;;;1.38;1.00;;;20.40;44.20;;;;;;4996483;28;22489;-68
2022/02/28 06:49:55;;;;;;;1.23;0.88;;;20.50;44.30;;;;;;4994334;28;20026;-67
2022/02/28 06:52:23;;;;;;;1.70;0.90;;;20.40;44.30;;;;;;4996166;28;20075;-68
2022/02/28 06:54:52;;;;;;;1.75;0.90;;;20.40;44.30;;;;;;4992365;28;20029;-68
2022/02/28 06:57:17;;;;;;;1.30;1.00;;;20.40;44.80;;;;;;4996129;28;20018;-68
2022/02/28 06:59:43;;;;;;;1.42;0.98;;;20.40;44.30;;;;;;4993602;28;20042;-67
2022/02/28 07:02:08;;;;;;;1.55;1.00;;;20.40;44.30;;;;;;4995313;28;20046;-67
2022/02/28 07:04:34;;;;;;;1.67;0.98;;;20.40;44.30;;;;;;4992870;28;20034;-70
2022/02/28 07:07:00;;;;;;;1.85;0.98;;;20.40;44.30;;;;;;4998080;28;20616;-69
2022/02/28 07:09:25;;;;;;;1.33;1.00;;;20.40;44.30;;;;;;4993507;28;20037;-68
2022/02/28 07:11:51;;;;;;;1.98;1.10;;;20.40;44.30;;;;;;4996742;28;20168;-66
2022/02/28 07:14:17;;;;;;;1.90;1.15;;;20.40;44.30;;;;;;4999430;28;20041;-68
2022/02/28 07:16:43;;;;;;;1.95;1.20;;;20.40;44.30;;;;;;4999146;28;20463;-66
2022/02/28 07:19:08;;;;;;;1.90;1.10;;;20.40;44.30;;;;;;4999565;28;20118;-69
2022/02/28 07:21:35;;;;;;;2.05;1.10;;;20.40;44.40;;;;;;4998470;28;20306;-67
2022/02/28 07:24:01;;;;;;;1.48;1.00;;;20.40;44.40;;;;;;4996633;28;20133;-69
2022/02/28 07:26:29;;;;;;;2.10;1.30;;;20.40;44.40;;;;;;4999177;28;20112;-69
2022/02/28 07:28:56;;;;;;;1.98;1.10;;;20.40;44.40;;;;;;4998517;28;20182;-67
2022/02/28 07:31:22;;;;;;;2.10;1.25;;;20.40;44.40;;;;;;4997272;28;20036;-67
2022/02/28 07:33:47;;;;;;;1.83;1.25;;;20.40;44.50;;;;;;4998279;28;20124;-69
2022/02/28 07:36:13;;;;;;;1.90;1.02;;;20.40;44.50;;;;;;4998383;28;20045;-66
2022/02/28 07:38:39;;;;;;;1.98;1.30;;;20.30;44.50;;;;;;4998258;28;20105;-69
2022/02/28 07:41:06;;;;;;;2.65;1.20;;;20.30;44.50;;;;;;4995110;28;20120;-69
2022/02/28 07:43:31;;;;;;;1.88;1.20;;;20.30;44.50;;;;;;4998973;28;20058;-66
2022/02/28 07:45:57;;;;;;;1.90;1.30;;;20.40;44.60;;;;;;4998238;28;20068;-67
2022/02/28 07:48:23;;;;;;;2.40;1.23;;;20.40;44.50;;;;;;4999396;28;20117;-68
2022/02/28 07:50:48;;;;;;;1.75;1.10;;;20.30;44.50;;;;;;4998231;28;20437;-69
2022/02/28 07:53:14;;;;;;;2.13;1.30;;;20.40;44.60;;;;;;4998219;28;20057;-70
2022/02/28 07:55:39;;;;;;;1.95;1.33;;;20.40;44.60;;;;;;4996639;28;20037;-69
2022/02/28 07:58:05;;;;;;;1.70;1.20;;;20.40;44.60;;;;;;4997822;28;20026;-70
2022/02/28 08:00:32;;;;;;;2.13;1.20;;;20.30;44.50;;;;;;4998996;28;20137;-68
2022/02/28 08:02:59;;;;;;;2.03;1.30;;;20.30;44.50;;;;;;4996489;28;20058;-68
2022/02/28 08:05:24;;;;;;;1.77;1.13;;;20.30;44.60;;;;;;4994004;28;20513;-68
2022/02/28 08:07:50;;;;;;;2.38;1.20;;;20.30;44.60;;;;;;4994760;28;20053;-69
2022/02/28 08:10:16;;;;;;;2.00;1.10;;;20.30;44.60;;;;;;4996211;28;20488;-67
2022/02/28 08:12:42;;;;;;;1.80;1.10;;;20.30;44.60;;;;;;4997133;28;20030;-69
2022/02/28 08:15:08;;;;;;;1.80;1.05;;;20.30;44.60;;;;;;4997885;28;20030;-68
2022/02/28 08:17:34;;;;;;;2.67;1.20;;;20.30;44.60;;;;;;5011695;28;20026;-70
2022/02/28 08:19:59;;;;;;;1.70;1.05;;;20.30;44.60;;;;;;4996639;28;20026;-70
2022/02/28 08:22:25;;;;;;;2.42;1.23;;;20.30;44.70;;;;;;5012052;28;20490;-68
2022/02/28 08:24:51;;;;;;;2.45;1.20;;;20.30;44.70;;;;;;4996716;28;20098;-69
2022/02/28 08:27:16;;;;;;;2.13;1.20;;;20.30;44.70;;;;;;4998493;28;20160;-69
2022/02/28 08:29:42;;;;;;;2.42;1.40;;;20.30;44.70;;;;;;4997235;28;20097;-69
2022/02/28 08:32:08;;;;;;;2.40;1.25;;;20.30;44.80;;;;;;4997732;28;20402;-69
2022/02/28 08:34:34;;;;;;;3.08;1.40;;;20.30;44.80;;;;;;4998286;28;20113;-67
2022/02/28 08:36:59;;;;;;;3.10;1.55;;;20.30;44.90;;;;;;4998501;28;20427;-69
2022/02/28 08:39:25;;;;;;;2.38;1.35;;;20.30;44.80;;;;;;4995343;28;20026;-67
2022/02/28 08:41:51;;;;;;;2.95;1.42;;;20.30;44.90;;;;;;4996164;28;20032;-69
2022/02/28 08:44:17;;;;;;;3.63;1.50;;;20.30;44.90;;;;;;4996957;28;20109;-66
2022/02/28 08:46:42;;;;;;;4.45;2.22;;;20.30;45.00;;;;;;4998851;28;20022;-69
2022/02/28 08:49:08;;;;;;;3.40;1.60;;;20.30;44.90;;;;;;4996728;28;20323;-66
2022/02/28 08:51:34;;;;;;;3.28;1.77;;;20.30;45.00;;;;;;4998083;28;20037;-68
2022/02/28 08:54:00;;;;;;;3.53;1.52;;;20.30;45.00;;;;;;4992252;28;20030;-69
2022/02/28 08:56:25;;;;;;;3.00;1.50;;;20.30;45.10;;;;;;4997125;28;20048;-68
2022/02/28 08:58:51;;;;;;;3.33;1.75;;;20.30;45.10;;;;;;4996573;28;20056;-68
2022/02/28 09:01:17;;;;;;;2.88;1.60;;;20.30;45.10;;;;;;4996731;28;20046;-68
2022/02/28 09:03:42;;;;;;;3.35;1.77;;;20.30;45.10;;;;;;4997332;28;20038;-68
2022/02/28 09:06:08;;;;;;;6.03;1.85;;;20.30;45.10;;;;;;4997178;28;20045;-70
2022/02/28 09:08:34;;;;;;;3.78;1.65;;;20.30;45.10;;;;;;4998157;28;20502;-69
2022/02/28 09:11:00;;;;;;;3.42;1.52;;;20.30;45.20;;;;;;4995531;28;20037;-69
2022/02/28 09:13:26;;;;;;;4.05;2.00;;;20.30;45.20;;;;;;4998044;28;20056;-69
2022/02/28 09:15:52;;;;;;;4.28;1.77;;;20.30;45.30;;;;;;4997234;28;20022;-68
2022/02/28 09:18:18;;;;;;;3.60;2.03;;;20.30;45.30;;;;;;5011252;28;20041;-70
2022/02/28 09:20:44;;;;;;;4.80;1.92;;;20.30;45.30;;;;;;4995638;28;20046;-69
2022/02/28 09:23:09;;;;;;;4.82;1.90;;;20.30;45.30;;;;;;4996751;28;20022;-68
2022/02/28 09:25:35;;;;;;;4.80;1.83;;;20.30;45.30;;;;;;4996252;28;20018;-69
2022/02/28 09:28:01;;;;;;;4.68;1.92;;;20.40;45.40;;;;;;4995730;28;20033;-65
2022/02/28 09:30:26;;;;;;;5.70;2.15;;;20.40;45.50;;;;;;4993766;28;20340;-68
2022/02/28 09:32:52;;;;;;;5.18;2.20;;;20.30;45.30;;;;;;4995232;28;20033;-67
2022/02/28 09:35:18;;;;;;;3.35;1.85;;;20.30;45.20;;;;;;5011710;28;20029;-69
2022/02/28 09:37:44;;;;;;;6.32;2.30;;;20.30;44.70;;;;;;4997211;28;20076;-69
2022/02/28 09:40:10;;;;;;;4.45;2.10;;;20.30;44.40;;;;;;4996946;28;20213;-67
2022/02/28 09:42:37;;;;;;;4.22;2.20;;;20.30;44.40;;;;;;5011725;28;20029;-68
2022/02/28 09:45:03;;;;;;;4.72;2.22;;;20.30;44.20;;;;;;4997925;28;20057;-66
2022/02/28 09:47:31;;;;;;;3.63;2.00;;;20.40;44.10;;;;;;4994424;28;20521;-66
2022/02/28 09:49:57;;;;;;;5.65;2.35;;;20.30;43.90;;;;;;4995199;28;20037;-69
2022/02/28 09:52:23;;;;;;;4.68;2.42;;;20.40;44.50;;;;;;4997462;28;20041;-69
2022/02/28 09:54:49;;;;;;;7.60;2.55;;;20.40;44.00;;;;;;4993570;28;20026;-66
2022/02/28 09:57:16;;;;;;;5.28;2.17;;;20.40;44.20;;;;;;4995854;28;20305;-68
2022/02/28 09:59:44;;;;;;;5.30;2.45;;;20.40;44.30;;;;;;4995131;28;20522;-69
2022/02/28 10:02:09;;;;;;;3.95;2.05;;;20.50;44.50;;;;;;4995014;28;20494;-67
2022/02/28 10:04:35;;;;;;;4.28;2.40;;;20.40;44.40;;;;;;4996610;28;20038;-66
2022/02/28 10:07:23;;;;;;;3.92;2.35;;;20.50;44.50;;;;;;4996473;28;20120;-67
2022/02/28 10:10:12;;;;;;;5.20;2.35;;;20.50;44.60;;;;;;4993544;28;20084;-67
2022/02/28 10:12:38;;;;;;;4.75;2.50;;;20.50;44.70;;;;;;4994704;28;20109;-67
2022/02/28 10:15:08;;;;;;;4.28;2.13;;;20.50;44.80;;;;;;4996131;28;20030;-69
2022/02/28 10:17:46;;;;;;;4.32;2.10;;;20.50;44.80;;;;;;4997631;28;20033;-69
2022/02/28 10:20:21;;;;;;;4.13;1.98;;;20.50;44.80;;;;;;5012537;28;20037;-68
2022/02/28 10:22:51;;;;;;;3.95;1.88;;;20.50;44.90;;;;;;4995642;28;20033;-67
2022/02/28 10:25:30;;;;;;;5.38;2.35;;;20.50;44.90;;;;;;4994978;28;20030;-67
2022/02/28 10:28:12;;;;;;;3.95;2.10;;;20.50;45.00;;;;;;4995923;28;20034;-67
2022/02/28 10:30:39;;;;;;;3.60;1.98;;;20.60;45.10;;;;;;4996684;28;20042;-65
2022/02/28 10:33:15;;;;;;;3.63;1.90;;;20.60;45.10;;;;;;4995283;28;20317;-67
2022/02/28 10:36:01;;;;;;;3.90;1.90;;;20.60;45.20;;;;;;4997136;28;20364;-69
2022/02/28 10:38:28;;;;;;;4.95;2.28;;;20.60;45.20;;;;;;4992910;28;20085;-68
2022/02/28 10:40:55;;;;;;;3.45;1.83;;;20.60;45.30;;;;;;4993817;28;20486;-66
2022/02/28 10:43:35;;;;;;;3.97;1.92;;;20.70;45.40;;;;;;4996972;28;20592;-67
2022/02/28 10:46:16;;;;;;;5.22;2.20;;;20.70;45.40;;;;;;4994326;28;20109;-66
2022/02/28 10:48:58;;;;;;;3.65;1.77;;;20.70;45.40;;;;;;4994757;28;20026;-68
2022/02/28 10:51:25;;;;;;;3.95;2.00;;;20.70;45.40;;;;;;4995711;28;20113;-68
2022/02/28 10:54:11;;;;;;;3.75;2.08;;;20.70;45.50;;;;;;4994134;28;20042;-68
2022/02/28 10:56:45;;;;;;;3.55;1.80;;;20.70;45.60;;;;;;4996634;28;20052;-67
2022/02/28 10:59:10;;;;;;;3.83;2.00;;;20.70;45.50;;;;;;4995646;28;20026;-68
2022/02/28 11:01:40;;;;;;;2.85;1.83;;;20.70;45.30;;;;;;4996502;28;20088;-67
2022/02/28 11:04:07;;;;;;;3.45;1.92;;;20.80;45.20;;;;;;4996704;28;20615;-67
2022/02/28 11:06:34;;;;;;;5.35;2.30;;;20.70;45.40;;;;;;4996181;28;20042;-67
2022/02/28 11:09:01;;;;;;;3.85;1.88;;;20.70;44.70;;;;;;4992588;28;20026;-67
2022/02/28 11:11:27;;;;;;;4.63;1.98;;;20.70;44.40;;;;;;5009933;28;20030;-67
2022/02/28 11:13:54;;;;;;;4.35;2.03;;;20.80;44.40;;;;;;4996518;28;20033;-69
2022/02/28 11:16:20;;;;;;;3.25;1.90;;;20.80;44.30;;;;;;4996789;28;20053;-67
2022/02/28 11:18:46;;;;;;;3.63;1.83;;;20.80;44.00;;;;;;4995360;28;20506;-66
2022/02/28 11:21:18;;;;;;;4.78;2.00;;;20.80;43.80;;;;;;4994999;28;20117;-66
2022/02/28 11:23:46;;;;;;;3.97;1.83;;;20.80;43.70;;;;;;4992060;28;20444;-65
2022/02/28 11:26:13;;;;;;;2.67;1.65;;;20.80;43.80;;;;;;4994943;28;20054;-69
2022/02/28 11:28:39;;;;;;;4.00;1.77;;;20.80;43.80;;;;;;4995248;28;20611;-66
2022/02/28 11:31:07;;;;;;;3.10;1.80;;;20.90;44.00;;;;;;4995621;28;20141;-69
2022/02/28 11:33:33;;;;;;;4.30;2.08;;;20.80;44.00;;;;;;4996551;28;20034;-67
2022/02/28 11:35:59;;;;;;;3.70;1.92;;;20.90;44.10;;;;;;4995409;28;20026;-69
2022/02/28 11:38:28;;;;;;;3.28;1.80;;;20.90;44.20;;;;;;4994220;28;20098;-70
2022/02/28 11:41:05;;;;;;;3.70;1.92;;;20.90;44.20;;;;;;4989145;28;20038;-64
2022/02/28 11:43:31;;;;;;;3.30;1.73;;;20.90;44.60;;;;;;4995030;28;20517;-67
2022/02/28 11:46:11;;;;;;;3.20;1.88;;;20.90;44.60;;;;;;4996173;28;20034;-68
2022/02/28 11:48:46;;;;;;;3.60;1.58;;;20.90;44.60;;;;;;4994787;28;20034;-67
2022/02/28 11:51:21;;;;;;;2.70;1.70;;;21.00;44.60;;;;;;4996939;28;20041;-67
2022/02/28 11:53:54;;;;;;;2.55;1.60;;;21.00;44.60;;;;;;4993503;28;20044;-67
2022/02/28 11:56:22;;;;;;;3.75;1.73;;;21.00;44.50;;;;;;4999101;28;20035;-68
2022/02/28 11:58:56;;;;;;;2.43;1.50;;;21.10;44.50;;;;;;5013823;28;20034;-68
2022/02/28 12:01:36;;;;;;;3.42;1.90;;;21.10;44.40;;;;;;5012889;28;20532;-67
2022/02/28 12:04:15;;;;;;;3.30;1.60;;;21.10;44.40;;;;;;5000101;28;20061;-67
2022/02/28 12:06:54;;;;;;;3.30;1.73;;;21.20;44.40;;;;;;4999224;28;20038;-64
2022/02/28 12:09:32;;;;;;;3.90;1.50;;;21.20;45.50;;;;;;4994765;28;20030;-64
2022/02/28 12:12:21;;;;;;;2.72;1.40;;;21.20;45.30;;;;;;5010832;28;20430;-64
2022/02/28 12:14:56;;;;;;;4.15;1.60;;;21.30;45.00;;;;;;4995778;28;20033;-64
2022/02/28 12:17:40;;;;;;;2.90;1.60;;;21.30;44.90;;;;;;5011174;28;20030;-64
2022/02/28 12:20:14;;;;;;;2.90;1.50;;;21.30;45.00;;;;;;4996193;28;20029;-63
2022/02/28 12:22:55;;;;;;;2.70;1.38;;;21.40;44.90;;;;;;4993282;28;20038;-66
2022/02/28 12:25:39;;;;;;;2.47;1.40;;;21.40;44.70;;;;;;5010212;28;20026;-65
2022/02/28 12:28:26;;;;;;;2.78;1.30;;;21.40;44.60;;;;;;4994053;28;20044;-67
2022/02/28 12:31:06;;;;;;;2.65;1.40;;;21.50;44.60;;;;;;4992328;28;20073;-68
2022/02/28 12:33:35;;;;;;;3.80;1.45;;;21.50;44.50;;;;;;5008777;28;20440;-65
2022/02/28 12:36:07;;;;;;;3.00;1.67;;;21.50;44.50;;;;;;5010561;28;20145;-67
2022/02/28 12:38:40;;;;;;;2.72;1.42;;;21.60;44.40;;;;;;4993148;28;20030;-66
2022/02/28 12:41:11;;;;;;;2.92;1.67;;;21.60;44.30;;;;;;4992808;28;20038;-65
2022/02/28 12:43:39;;;;;;;3.58;1.63;;;21.60;44.20;;;;;;4995598;28;20089;-65
2022/02/28 12:46:07;;;;;;;3.50;1.95;;;21.70;44.20;;;;;;4995791;28;20060;-70
2022/02/28 12:48:33;;;;;;;3.05;1.80;;;21.70;44.20;;;;;;4995065;28;20466;-70